Time;durP1;ratioP1;P1;durP2;ratioP2;P2;SDS_P1;SDS_P2;PMS_P1;PMS_P2;Temp;Humidity;BMP_temperature;BMP_pressure;BME280_temperature;BME280_humidity;BME280_pressure;Samples;Min_cycle;Max_cycle;Signal;HPM_P1;HPM_P2
2023/09/17 00:01:59;;;;;;;5.60;5.03;;;20.70;67.70;;;;;;5019402;28;20025;-64
2023/09/17 00:04:24;;;;;;;5.88;4.88;;;20.70;67.50;;;;;;5021383;28;20033;-64
2023/09/17 00:06:50;;;;;;;4.93;4.43;;;20.70;67.50;;;;;;5022233;28;20030;-64
2023/09/17 00:09:17;;;;;;;6.10;5.50;;;20.70;67.60;;;;;;5017960;28;20040;-64
2023/09/17 00:11:43;;;;;;;5.78;4.68;;;20.70;67.50;;;;;;5022433;28;20039;-62
2023/09/17 00:14:09;;;;;;;5.82;5.22;;;20.70;67.20;;;;;;5019307;28;20029;-64
2023/09/17 00:16:35;;;;;;;5.30;4.75;;;20.60;67.40;;;;;;5018911;28;20385;-65
2023/09/17 00:19:00;;;;;;;4.88;4.47;;;20.60;67.80;;;;;;5021618;28;20084;-64
2023/09/17 00:21:26;;;;;;;5.18;4.65;;;20.60;67.50;;;;;;5018683;28;20037;-64
2023/09/17 00:23:51;;;;;;;5.60;5.05;;;20.60;67.70;;;;;;5021948;28;20458;-64
2023/09/17 00:26:17;;;;;;;8.10;4.60;;;20.60;67.50;;;;;;5021352;28;20033;-64
2023/09/17 00:28:42;;;;;;;5.20;4.70;;;20.50;67.40;;;;;;5021386;28;20025;-65
2023/09/17 00:31:08;;;;;;;4.60;4.20;;;20.50;67.70;;;;;;5018693;28;20033;-65
2023/09/17 00:33:33;;;;;;;5.07;4.53;;;20.50;67.70;;;;;;5019702;28;20552;-65
2023/09/17 00:35:59;;;;;;;5.70;5.13;;;20.40;68.00;;;;;;5019798;28;20041;-65
2023/09/17 00:38:25;;;;;;;5.50;4.57;;;20.20;68.20;;;;;;5019293;28;20030;-65
2023/09/17 00:40:50;;;;;;;5.18;4.75;;;20.20;68.50;;;;;;5018830;28;20041;-65
2023/09/17 00:43:16;;;;;;;5.78;4.63;;;20.20;68.30;;;;;;5019191;28;20025;-64
2023/09/17 00:45:42;;;;;;;4.88;4.45;;;20.20;68.30;;;;;;5025536;28;20036;-63
2023/09/17 00:48:10;;;;;;;5.72;4.72;;;20.20;68.30;;;;;;5022382;28;20026;-65
2023/09/17 00:50:36;;;;;;;4.63;4.22;;;20.10;68.00;;;;;;5021782;28;20046;-64
2023/09/17 00:53:02;;;;;;;5.55;5.05;;;20.00;68.50;;;;;;5020910;28;20048;-65
2023/09/17 00:55:29;;;;;;;5.45;4.80;;;20.00;68.20;;;;;;5019833;28;20041;-65
2023/09/17 00:57:56;;;;;;;4.88;4.38;;;20.00;68.40;;;;;;5018231;28;20044;-64
2023/09/17 01:00:24;;;;;;;5.57;5.07;;;20.00;68.30;;;;;;5021022;28;20038;-65
2023/09/17 01:02:50;;;;;;;5.80;5.30;;;19.90;68.40;;;;;;5021376;28;20132;-64
2023/09/17 01:05:17;;;;;;;6.32;5.03;;;19.90;68.70;;;;;;5021029;28;20116;-65
2023/09/17 01:07:44;;;;;;;6.00;4.65;;;20.00;68.50;;;;;;5024291;28;20055;-64
2023/09/17 01:10:10;;;;;;;5.75;4.47;;;20.00;68.40;;;;;;5019954;28;20033;-64
2023/09/17 01:12:36;;;;;;;5.90;5.13;;;20.00;69.20;;;;;;5019622;28;20040;-63
2023/09/17 01:15:09;;;;;;;5.43;4.55;;;20.10;68.20;;;;;;5020272;28;20041;-64
2023/09/17 01:17:35;;;;;;;4.70;4.20;;;20.20;68.30;;;;;;5017843;28;20652;-64
2023/09/17 01:20:07;;;;;;;5.25;4.75;;;20.20;68.10;;;;;;5020208;28;20060;-63
2023/09/17 01:22:38;;;;;;;5.25;4.75;;;20.30;67.70;;;;;;5018861;28;20123;-64
2023/09/17 01:25:15;;;;;;;4.93;4.50;;;20.30;67.80;;;;;;5021513;28;20079;-64
2023/09/17 01:27:44;;;;;;;5.75;4.68;;;20.40;67.90;;;;;;4991960;28;20041;-64
2023/09/17 01:30:15;;;;;;;4.40;4.00;;;20.30;67.70;;;;;;5018121;28;20037;-60
2023/09/17 01:32:44;;;;;;;5.22;4.72;;;20.30;67.70;;;;;;5019558;28;20025;-64
2023/09/17 01:35:15;;;;;;;5.18;4.68;;;20.40;67.70;;;;;;5016329;28;20029;-64
2023/09/17 01:37:52;;;;;;;5.25;4.65;;;20.40;67.80;;;;;;5016536;28;20370;-65
2023/09/17 01:40:17;;;;;;;4.60;4.20;;;20.40;67.60;;;;;;5019628;28;20828;-65
2023/09/17 01:42:46;;;;;;;4.72;4.32;;;20.40;67.50;;;;;;4999731;28;20354;-64
2023/09/17 01:45:16;;;;;;;5.18;4.68;;;20.40;67.60;;;;;;5019254;28;20025;-64
2023/09/17 01:47:47;;;;;;;3.97;3.67;;;20.30;67.60;;;;;;5016467;28;20101;-65
2023/09/17 01:50:15;;;;;;;5.20;4.70;;;20.30;67.50;;;;;;5019690;28;20048;-64
2023/09/17 01:52:43;;;;;;;4.97;4.40;;;20.40;67.60;;;;;;5017229;28;20042;-64
2023/09/17 01:55:08;;;;;;;5.25;4.72;;;20.30;67.70;;;;;;5017385;28;20048;-64
2023/09/17 01:57:34;;;;;;;4.97;4.47;;;20.40;67.50;;;;;;5014528;28;20543;-64
2023/09/17 02:00:00;;;;;;;4.82;4.38;;;20.30;67.60;;;;;;5018346;28;20075;-59
2023/09/17 02:02:26;;;;;;;5.32;4.82;;;20.30;67.60;;;;;;5019040;28;20038;-58
2023/09/17 02:04:52;;;;;;;5.35;4.85;;;20.30;67.60;;;;;;5015946;28;20339;-64
2023/09/17 02:07:18;;;;;;;4.97;4.30;;;20.30;67.50;;;;;;5018460;28;20057;-64
2023/09/17 02:09:44;;;;;;;4.72;4.28;;;20.30;67.50;;;;;;5018624;28;20022;-63
2023/09/17 02:12:09;;;;;;;5.13;4.63;;;20.40;67.50;;;;;;5022358;28;20083;-65
2023/09/17 02:14:35;;;;;;;4.72;4.30;;;20.40;67.50;;;;;;5017748;28;20033;-65
2023/09/17 02:17:03;;;;;;;5.40;4.90;;;20.40;67.20;;;;;;5018581;28;20178;-64
2023/09/17 02:19:28;;;;;;;4.80;4.40;;;20.30;67.20;;;;;;5017646;28;20029;-65
2023/09/17 02:21:54;;;;;;;4.80;4.40;;;20.30;67.10;;;;;;5015396;28;20087;-65
2023/09/17 02:24:20;;;;;;;4.97;4.57;;;20.30;67.30;;;;;;5017630;28;20124;-65
2023/09/17 02:26:46;;;;;;;4.85;4.45;;;20.30;67.40;;;;;;5023224;28;20032;-59
2023/09/17 02:29:12;;;;;;;5.70;5.20;;;20.30;67.30;;;;;;5018937;28;20038;-65
2023/09/17 02:31:37;;;;;;;5.00;4.50;;;20.30;67.20;;;;;;5022764;28;20029;-65
2023/09/17 02:34:04;;;;;;;5.95;4.78;;;20.30;67.30;;;;;;5026596;28;20426;-64
2023/09/17 02:36:30;;;;;;;5.82;4.55;;;20.40;67.30;;;;;;5027215;28;20033;-65
2023/09/17 02:38:56;;;;;;;5.43;4.93;;;20.40;67.20;;;;;;5028123;28;20051;-64
2023/09/17 02:41:22;;;;;;;5.13;4.63;;;20.40;67.00;;;;;;5023228;28;20034;-64
2023/09/17 02:43:48;;;;;;;4.72;4.32;;;20.40;67.20;;;;;;5021280;28;20037;-65
2023/09/17 02:46:13;;;;;;;6.13;5.15;;;20.30;67.00;;;;;;5023458;28;20112;-65
2023/09/17 02:48:39;;;;;;;4.65;4.25;;;20.40;67.20;;;;;;5019996;28;20052;-65
2023/09/17 02:51:04;;;;;;;5.28;4.78;;;20.30;67.20;;;;;;5021966;28;21055;-65
2023/09/17 02:53:30;;;;;;;5.20;4.70;;;20.40;67.20;;;;;;5018329;28;20421;-65
2023/09/17 02:55:56;;;;;;;4.75;4.35;;;20.30;67.10;;;;;;5020704;28;20558;-64
2023/09/17 02:58:23;;;;;;;5.05;4.55;;;20.40;67.20;;;;;;5020305;28;20452;-64
2023/09/17 03:00:49;;;;;;;5.72;5.15;;;20.30;67.10;;;;;;5027755;28;20602;-64
2023/09/17 03:03:15;;;;;;;4.75;4.32;;;20.30;67.00;;;;;;5027279;28;20465;-64
2023/09/17 03:05:44;;;;;;;6.38;5.18;;;20.30;66.50;;;;;;5006086;28;20479;-64
2023/09/17 03:08:09;;;;;;;5.43;4.93;;;20.30;67.00;;;;;;5023518;28;20041;-65
2023/09/17 03:10:42;;;;;;;4.88;4.35;;;20.30;67.00;;;;;;5024515;28;20136;-64
2023/09/17 03:13:10;;;;;;;4.65;4.20;;;20.30;67.00;;;;;;5021288;28;20053;-64
2023/09/17 03:15:35;;;;;;;4.85;4.40;;;20.30;67.00;;;;;;5021139;28;20037;-63
2023/09/17 03:18:02;;;;;;;4.38;3.97;;;20.30;67.10;;;;;;5019327;28;20033;-64
2023/09/17 03:20:27;;;;;;;5.20;4.40;;;20.40;67.10;;;;;;5020338;28;20443;-64
2023/09/17 03:22:53;;;;;;;4.65;4.18;;;20.30;66.70;;;;;;5018192;28;20075;-60
2023/09/17 03:25:19;;;;;;;5.30;4.50;;;20.30;66.80;;;;;;5019381;28;20030;-64
2023/09/17 03:27:45;;;;;;;4.63;4.22;;;20.30;67.00;;;;;;5026297;28;20416;-64
2023/09/17 03:30:12;;;;;;;5.00;4.50;;;20.30;67.00;;;;;;5021338;28;20433;-64
2023/09/17 03:32:37;;;;;;;4.38;3.97;;;20.30;67.10;;;;;;5022588;28;20033;-64
2023/09/17 03:35:05;;;;;;;4.65;4.25;;;20.30;67.00;;;;;;5016540;28;20030;-64
2023/09/17 03:37:31;;;;;;;4.60;4.20;;;20.30;66.90;;;;;;5020657;28;20057;-65
2023/09/17 03:40:12;;;;;;;4.05;3.75;;;20.30;66.90;;;;;;5020429;28;20075;-64
2023/09/17 03:42:39;;;;;;;4.78;4.30;;;20.30;66.90;;;;;;5019847;28;20048;-64
2023/09/17 03:45:06;;;;;;;4.28;3.88;;;20.30;66.80;;;;;;5001314;28;20104;-62
2023/09/17 03:47:32;;;;;;;4.25;3.85;;;20.30;66.80;;;;;;5019258;28;20033;-64
2023/09/17 03:49:58;;;;;;;4.45;4.05;;;20.30;66.60;;;;;;5020014;28;20029;-64
2023/09/17 03:52:25;;;;;;;4.80;4.32;;;20.30;66.80;;;;;;5019108;28;20049;-64
2023/09/17 03:54:52;;;;;;;5.38;3.85;;;20.30;66.80;;;;;;5023173;28;20380;-64
2023/09/17 03:57:17;;;;;;;4.55;4.15;;;20.30;66.80;;;;;;5000554;28;20462;-60
2023/09/17 03:59:43;;;;;;;4.60;4.20;;;20.30;66.80;;;;;;5021701;28;20046;-65
2023/09/17 04:02:09;;;;;;;4.50;4.10;;;20.30;66.80;;;;;;5025297;28;20038;-64
2023/09/17 04:04:34;;;;;;;5.80;4.65;;;20.30;66.50;;;;;;5022662;28;20033;-65
2023/09/17 04:07:00;;;;;;;4.00;3.55;;;20.30;66.70;;;;;;5018420;28;20491;-64
2023/09/17 04:09:25;;;;;;;5.30;4.80;;;20.30;66.50;;;;;;5018790;28;20030;-64
2023/09/17 04:11:51;;;;;;;4.38;3.97;;;20.00;65.80;;;;;;5020470;28;20369;-65
2023/09/17 04:14:16;;;;;;;4.20;3.85;;;19.90;67.10;;;;;;5019796;28;20032;-63
2023/09/17 04:16:42;;;;;;;4.50;4.10;;;20.00;67.30;;;;;;5017723;28;20033;-63
2023/09/17 04:19:07;;;;;;;4.32;3.75;;;20.00;67.20;;;;;;5018836;28;20573;-66
2023/09/17 04:21:33;;;;;;;6.47;3.67;;;20.10;67.10;;;;;;5015626;28;20274;-65
2023/09/17 04:24:03;;;;;;;4.63;3.70;;;20.20;67.00;;;;;;5021032;28;20510;-65
2023/09/17 04:26:30;;;;;;;4.07;3.78;;;20.20;66.80;;;;;;5021468;28;20079;-65
2023/09/17 04:28:55;;;;;;;4.25;3.83;;;20.20;66.80;;;;;;5024132;28;20483;-65
2023/09/17 04:31:21;;;;;;;4.20;3.72;;;20.20;67.00;;;;;;5018200;28;20064;-62
2023/09/17 04:33:46;;;;;;;3.75;3.45;;;20.20;66.80;;;;;;5012749;28;20454;-65
2023/09/17 04:36:12;;;;;;;4.32;3.92;;;20.30;66.90;;;;;;5021896;28;20144;-65
2023/09/17 04:38:38;;;;;;;4.85;4.45;;;20.20;66.70;;;;;;5018548;28;20432;-64
2023/09/17 04:41:04;;;;;;;5.68;4.38;;;20.20;66.60;;;;;;5020687;28;20607;-64
2023/09/17 04:43:29;;;;;;;4.22;3.83;;;20.20;66.70;;;;;;5018678;28;20037;-65
2023/09/17 04:45:55;;;;;;;3.88;3.58;;;20.20;66.40;;;;;;5017561;28;20040;-65
2023/09/17 04:48:20;;;;;;;4.20;3.80;;;20.20;66.60;;;;;;5016184;28;20044;-65
2023/09/17 04:50:47;;;;;;;4.07;3.75;;;20.20;66.60;;;;;;5016507;28;20515;-65
2023/09/17 04:53:13;;;;;;;3.70;3.38;;;20.20;66.70;;;;;;5021327;28;20049;-64
2023/09/17 04:55:38;;;;;;;3.70;3.40;;;20.20;66.70;;;;;;5025062;28;20403;-65
2023/09/17 04:58:04;;;;;;;4.32;3.40;;;20.20;66.70;;;;;;5020094;28;20089;-65
2023/09/17 05:00:29;;;;;;;4.35;4.00;;;20.20;66.70;;;;;;5017179;28;20033;-65
2023/09/17 05:02:55;;;;;;;3.75;3.45;;;20.20;66.60;;;;;;5019926;28;20565;-62
2023/09/17 05:05:21;;;;;;;4.03;3.63;;;20.20;66.60;;;;;;5019974;28;20037;-61
2023/09/17 05:07:48;;;;;;;4.10;3.80;;;20.20;66.70;;;;;;5019645;28;20202;-63
2023/09/17 05:10:15;;;;;;;3.40;3.10;;;20.20;66.50;;;;;;5019585;28;20050;-64
2023/09/17 05:12:41;;;;;;;4.05;3.72;;;20.10;66.60;;;;;;5013073;28;20029;-64
2023/09/17 05:15:06;;;;;;;3.92;3.35;;;20.20;66.60;;;;;;5018421;28;20034;-64
2023/09/17 05:17:32;;;;;;;4.28;3.65;;;20.20;66.60;;;;;;5015006;28;20413;-65
2023/09/17 05:19:58;;;;;;;4.00;3.60;;;20.20;66.40;;;;;;5023324;28;20059;-65
2023/09/17 05:22:23;;;;;;;4.63;3.78;;;20.10;66.40;;;;;;5016357;28;20033;-63
2023/09/17 05:24:49;;;;;;;3.45;3.25;;;20.10;66.70;;;;;;5017157;28;20080;-64
2023/09/17 05:27:14;;;;;;;4.25;3.85;;;20.20;66.90;;;;;;5021662;28;20061;-64
2023/09/17 05:29:40;;;;;;;4.30;3.90;;;20.20;66.50;;;;;;5020203;28;20338;-64
2023/09/17 05:32:06;;;;;;;3.78;3.38;;;20.20;66.50;;;;;;5014283;28;20045;-62
2023/09/17 05:34:32;;;;;;;3.50;3.13;;;20.20;66.50;;;;;;5003588;28;20155;-63
2023/09/17 05:36:57;;;;;;;3.78;3.47;;;20.20;66.60;;;;;;5020090;28;20087;-65
2023/09/17 05:39:23;;;;;;;4.05;3.47;;;20.20;66.60;;;;;;5019938;28;20034;-64
2023/09/17 05:41:49;;;;;;;4.30;3.50;;;20.20;66.70;;;;;;5014682;28;20025;-63
2023/09/17 05:44:14;;;;;;;5.13;3.95;;;20.30;66.60;;;;;;5017381;28;20045;-64
2023/09/17 05:46:40;;;;;;;4.00;3.60;;;20.30;66.60;;;;;;5016801;28;20034;-64
2023/09/17 05:49:05;;;;;;;4.38;3.78;;;20.30;66.80;;;;;;5017004;28;20044;-64
2023/09/17 05:51:31;;;;;;;4.03;3.70;;;20.30;66.80;;;;;;5022173;28;20140;-64
2023/09/17 05:53:56;;;;;;;4.18;3.72;;;20.20;66.70;;;;;;5021677;28;20025;-61
2023/09/17 05:56:22;;;;;;;5.30;3.80;;;20.30;66.80;;;;;;5022302;28;20037;-64
2023/09/17 05:58:47;;;;;;;4.10;3.70;;;20.30;66.80;;;;;;5026039;28;20464;-62
2023/09/17 06:01:13;;;;;;;3.67;3.35;;;20.30;67.00;;;;;;5020777;28;20149;-62
2023/09/17 06:03:39;;;;;;;4.03;3.17;;;20.30;66.90;;;;;;5018791;28;20029;-64
2023/09/17 06:06:04;;;;;;;4.70;3.70;;;20.30;66.80;;;;;;5018776;28;20498;-64
2023/09/17 06:08:30;;;;;;;4.13;3.55;;;20.40;66.60;;;;;;5018863;28;20095;-60
2023/09/17 06:10:55;;;;;;;4.57;3.50;;;20.40;66.50;;;;;;5019829;28;20486;-65
2023/09/17 06:13:21;;;;;;;3.63;3.33;;;20.40;66.50;;;;;;5017559;28;20099;-64
2023/09/17 06:15:47;;;;;;;4.47;4.07;;;20.40;66.30;;;;;;5020037;28;20092;-62
2023/09/17 06:18:12;;;;;;;4.35;3.70;;;20.50;67.00;;;;;;5019550;28;20021;-64
2023/09/17 06:20:39;;;;;;;4.70;3.92;;;20.40;68.30;;;;;;5002986;28;20404;-63
2023/09/17 06:23:05;;;;;;;5.95;4.00;;;20.40;69.30;;;;;;5020683;28;20052;-65
2023/09/17 06:25:31;;;;;;;6.63;4.18;;;20.40;69.50;;;;;;5022101;28;20037;-65
2023/09/17 06:27:56;;;;;;;6.30;4.68;;;20.40;69.90;;;;;;5019485;28;20112;-65
2023/09/17 06:30:22;;;;;;;5.90;4.50;;;20.40;70.10;;;;;;5019310;28;20145;-65
2023/09/17 06:32:47;;;;;;;6.07;4.75;;;20.40;70.10;;;;;;5017096;28;20068;-64
2023/09/17 06:35:13;;;;;;;5.15;4.20;;;20.40;71.20;;;;;;5017641;28;20073;-64
2023/09/17 06:37:39;;;;;;;4.45;4.10;;;20.40;70.50;;;;;;5018030;28;20276;-64
2023/09/17 06:40:05;;;;;;;5.25;4.80;;;20.40;71.30;;;;;;5016422;28;20029;-60
2023/09/17 06:42:31;;;;;;;4.75;4.35;;;20.50;71.00;;;;;;5016112;28;20495;-65
2023/09/17 06:44:56;;;;;;;4.65;4.25;;;20.40;70.80;;;;;;5015706;28;20061;-65
2023/09/17 06:47:22;;;;;;;4.90;4.00;;;20.50;69.90;;;;;;5014422;28;20033;-64
2023/09/17 06:49:47;;;;;;;5.88;4.43;;;20.50;70.60;;;;;;5020280;28;20362;-61
2023/09/17 06:52:13;;;;;;;11.50;5.22;;;20.50;70.00;;;;;;5022971;28;20081;-65
2023/09/17 06:54:38;;;;;;;5.38;4.88;;;20.50;69.90;;;;;;5019834;28;20037;-64
2023/09/17 06:57:04;;;;;;;5.22;4.03;;;20.50;69.90;;;;;;5020084;28;20041;-64
2023/09/17 06:59:30;;;;;;;5.07;4.38;;;20.50;69.90;;;;;;5005020;28;20029;-63
2023/09/17 07:01:55;;;;;;;4.40;3.97;;;20.50;69.20;;;;;;5016015;28;20076;-65
2023/09/17 07:04:21;;;;;;;4.57;4.18;;;20.50;69.60;;;;;;5019289;28;20076;-64
2023/09/17 07:06:46;;;;;;;4.97;3.97;;;20.50;69.40;;;;;;5017681;28;20029;-64
2023/09/17 07:09:13;;;;;;;5.97;3.92;;;20.50;69.50;;;;;;5016617;28;20408;-62
2023/09/17 07:11:38;;;;;;;7.68;4.32;;;20.50;69.20;;;;;;5016535;28;20085;-65
2023/09/17 07:14:09;;;;;;;5.18;3.97;;;20.60;69.30;;;;;;5018335;28;20440;-64
2023/09/17 07:16:36;;;;;;;5.20;4.32;;;20.60;69.00;;;;;;5018615;28;20049;-64
2023/09/17 07:19:02;;;;;;;7.43;4.32;;;20.60;69.30;;;;;;5021799;28;20025;-64
2023/09/17 07:21:27;;;;;;;5.20;4.38;;;20.60;69.20;;;;;;5022293;28;20159;-66
2023/09/17 07:23:53;;;;;;;5.57;4.30;;;20.60;69.10;;;;;;5020882;28;20481;-64
2023/09/17 07:26:20;;;;;;;5.90;3.95;;;20.60;68.80;;;;;;5017675;28;20116;-64
2023/09/17 07:28:46;;;;;;;4.53;4.13;;;20.60;69.10;;;;;;5023537;28;20033;-59
2023/09/17 07:31:12;;;;;;;4.20;3.80;;;20.60;68.90;;;;;;5021180;28;20464;-64
2023/09/17 07:33:39;;;;;;;4.60;4.20;;;20.60;68.80;;;;;;5019296;28;20041;-64
2023/09/17 07:36:05;;;;;;;4.85;4.25;;;20.60;68.60;;;;;;5020734;28;20528;-64
2023/09/17 07:38:31;;;;;;;5.78;4.00;;;20.60;68.30;;;;;;5019403;28;20099;-64
2023/09/17 07:40:56;;;;;;;4.95;4.00;;;20.60;68.40;;;;;;5019736;28;20464;-64
2023/09/17 07:43:22;;;;;;;4.40;4.00;;;20.60;68.20;;;;;;5018696;28;20753;-64
2023/09/17 07:45:47;;;;;;;3.80;3.50;;;20.60;68.10;;;;;;5020856;28;20105;-62
2023/09/17 07:48:13;;;;;;;4.18;3.78;;;20.70;68.10;;;;;;5027490;28;20488;-61
2023/09/17 07:50:40;;;;;;;4.28;3.88;;;20.70;67.90;;;;;;5023982;28;20048;-64
2023/09/17 07:53:06;;;;;;;4.20;3.75;;;20.70;67.70;;;;;;5019914;28;20393;-64
2023/09/17 07:55:31;;;;;;;4.45;3.80;;;20.70;67.60;;;;;;5020331;28;20036;-63
2023/09/17 07:57:57;;;;;;;5.75;3.88;;;20.70;67.60;;;;;;5022307;28;20025;-64
2023/09/17 08:00:22;;;;;;;4.55;4.15;;;20.80;67.80;;;;;;5020822;28;20038;-64
2023/09/17 08:02:48;;;;;;;3.72;3.42;;;20.80;68.10;;;;;;5019714;28;20100;-63
2023/09/17 08:05:14;;;;;;;4.75;4.35;;;20.80;68.00;;;;;;5023258;28;20032;-64
2023/09/17 08:07:40;;;;;;;3.75;3.15;;;20.80;67.70;;;;;;5019598;28;20377;-64
2023/09/17 08:10:07;;;;;;;3.55;3.22;;;20.80;67.70;;;;;;5019716;28;20269;-64
2023/09/17 08:12:33;;;;;;;4.07;3.60;;;20.80;67.60;;;;;;5020341;28;20083;-65
2023/09/17 08:14:59;;;;;;;4.90;3.55;;;20.80;67.80;;;;;;5020073;28;20113;-65
2023/09/17 08:17:25;;;;;;;3.92;3.60;;;20.80;67.70;;;;;;5020716;28;20077;-65
2023/09/17 08:19:51;;;;;;;6.20;3.65;;;20.80;67.90;;;;;;5024410;28;20088;-58
2023/09/17 08:22:16;;;;;;;5.05;3.85;;;20.80;68.00;;;;;;5022029;28;20038;-66
2023/09/17 08:24:43;;;;;;;7.43;3.80;;;20.70;67.70;;;;;;5022989;28;20392;-61
2023/09/17 08:27:09;;;;;;;4.03;3.47;;;20.80;67.80;;;;;;5018108;28;20092;-63
2023/09/17 08:29:34;;;;;;;6.60;3.65;;;20.80;67.80;;;;;;5019747;28;20500;-65
2023/09/17 08:32:00;;;;;;;3.35;3.05;;;20.80;67.60;;;;;;5019416;28;20030;-65
2023/09/17 08:34:26;;;;;;;5.82;3.20;;;20.80;67.60;;;;;;5006478;28;20033;-65
2023/09/17 08:36:53;;;;;;;4.35;3.28;;;20.80;68.10;;;;;;5020160;28;20033;-65
2023/09/17 08:39:19;;;;;;;5.90;3.35;;;20.80;67.40;;;;;;5017081;28;20030;-65
2023/09/17 08:41:47;;;;;;;4.15;3.35;;;20.80;67.30;;;;;;5017586;28;20156;-65
2023/09/17 08:44:14;;;;;;;4.25;3.63;;;20.80;67.50;;;;;;5021692;28;20033;-65
2023/09/17 08:46:40;;;;;;;4.22;3.05;;;20.80;67.40;;;;;;5004699;28;20039;-65
2023/09/17 08:49:06;;;;;;;3.75;3.45;;;20.80;67.10;;;;;;5025807;28;20099;-65
2023/09/17 08:51:37;;;;;;;4.07;3.67;;;20.80;67.20;;;;;;5024779;28;20321;-62
2023/09/17 08:54:14;;;;;;;3.53;3.22;;;20.80;67.30;;;;;;5022391;28;20475;-64
2023/09/17 08:56:42;;;;;;;3.60;3.28;;;20.80;67.20;;;;;;5019352;28;20099;-65
2023/09/17 08:59:16;;;;;;;5.13;3.45;;;20.80;67.40;;;;;;5015274;28;20033;-65
2023/09/17 09:01:46;;;;;;;4.85;3.63;;;20.80;67.30;;;;;;5017820;28;20052;-64
2023/09/17 09:04:13;;;;;;;4.18;3.60;;;20.80;67.60;;;;;;5020558;28;20034;-64
2023/09/17 09:06:39;;;;;;;4.10;3.40;;;20.80;67.70;;;;;;5018566;28;20049;-63
2023/09/17 09:09:05;;;;;;;3.63;3.33;;;20.80;67.60;;;;;;5016820;28;20041;-64
2023/09/17 09:11:34;;;;;;;3.30;3.00;;;20.80;67.50;;;;;;5018742;28;20091;-64
2023/09/17 09:14:04;;;;;;;4.25;3.45;;;20.80;67.40;;;;;;5018459;28;20030;-64
2023/09/17 09:16:33;;;;;;;4.90;3.45;;;20.80;67.30;;;;;;5020316;28;20045;-64
2023/09/17 09:18:59;;;;;;;3.95;3.60;;;20.80;66.90;;;;;;5021869;28;20041;-64
2023/09/17 09:21:28;;;;;;;4.55;2.70;;;20.80;66.80;;;;;;5017220;28;20116;-64
2023/09/17 09:23:57;;;;;;;4.28;3.20;;;20.80;67.00;;;;;;5020772;28;20041;-66
2023/09/17 09:26:32;;;;;;;5.72;3.17;;;20.80;67.20;;;;;;5023049;28;20491;-64
2023/09/17 09:28:58;;;;;;;4.28;3.60;;;20.90;67.10;;;;;;5019575;28;20117;-66
2023/09/17 09:31:24;;;;;;;5.72;3.65;;;20.90;67.80;;;;;;5018712;28;20261;-65
2023/09/17 09:33:50;;;;;;;3.72;3.33;;;20.90;67.00;;;;;;5019842;28;20688;-66
2023/09/17 09:36:16;;;;;;;4.00;3.15;;;20.90;67.00;;;;;;5022557;28;20033;-65
2023/09/17 09:38:42;;;;;;;3.67;3.28;;;20.90;66.90;;;;;;5019892;28;20068;-66
2023/09/17 09:41:08;;;;;;;5.45;3.40;;;20.90;66.60;;;;;;5020259;28;20124;-65
2023/09/17 09:43:33;;;;;;;4.20;3.40;;;21.00;66.00;;;;;;5016854;28;20113;-64
2023/09/17 09:46:04;;;;;;;5.30;3.63;;;21.00;65.40;;;;;;5021237;28;20053;-65
2023/09/17 09:48:31;;;;;;;3.72;3.10;;;21.00;65.60;;;;;;5020366;28;20055;-66
2023/09/17 09:50:57;;;;;;;3.70;3.33;;;20.90;65.80;;;;;;5017047;28;20033;-66
2023/09/17 09:53:24;;;;;;;4.68;3.40;;;20.90;66.00;;;;;;5019870;28;20580;-66
2023/09/17 09:55:50;;;;;;;6.28;3.53;;;21.00;66.00;;;;;;5020158;28;20155;-65
2023/09/17 09:58:17;;;;;;;3.63;3.33;;;21.00;65.70;;;;;;5020077;28;20030;-66
2023/09/17 10:00:45;;;;;;;4.10;3.70;;;21.10;65.50;;;;;;5019666;28;20060;-65
2023/09/17 10:03:12;;;;;;;3.55;3.25;;;21.10;65.70;;;;;;5019254;28;20040;-65
2023/09/17 10:05:40;;;;;;;4.22;3.83;;;21.00;65.90;;;;;;5016238;28;20061;-65
2023/09/17 10:08:12;;;;;;;5.10;3.72;;;21.10;65.70;;;;;;5017243;28;20029;-66
2023/09/17 10:10:38;;;;;;;3.80;3.40;;;21.10;65.30;;;;;;5018785;28;20510;-66
2023/09/17 10:13:11;;;;;;;3.83;3.40;;;21.20;65.20;;;;;;5018430;28;20025;-65
2023/09/17 10:15:38;;;;;;;3.90;3.50;;;21.20;65.20;;;;;;5022464;28;20030;-66
2023/09/17 10:18:05;;;;;;;5.60;3.65;;;21.20;64.90;;;;;;5017107;28;20017;-66
2023/09/17 10:20:32;;;;;;;5.18;3.45;;;21.20;65.10;;;;;;5017042;28;20241;-61
2023/09/17 10:22:58;;;;;;;3.30;3.00;;;21.20;65.30;;;;;;5026770;28;20017;-65
2023/09/17 10:25:26;;;;;;;5.82;3.10;;;21.20;65.50;;;;;;5019417;28;20033;-65
2023/09/17 10:27:53;;;;;;;3.20;2.90;;;21.20;65.70;;;;;;5017602;28;20033;-66
2023/09/17 10:30:20;;;;;;;3.40;3.10;;;21.20;65.70;;;;;;5019279;28;20053;-61
2023/09/17 10:32:47;;;;;;;3.55;3.15;;;21.30;65.40;;;;;;5019203;28;20030;-65
2023/09/17 10:35:14;;;;;;;2.60;2.40;;;21.30;65.30;;;;;;5017327;28;20030;-66
2023/09/17 10:37:40;;;;;;;4.20;2.92;;;21.20;64.90;;;;;;5016433;28;21268;-66
2023/09/17 10:40:12;;;;;;;2.97;2.63;;;21.30;64.80;;;;;;5015290;28;20080;-66
2023/09/17 10:42:40;;;;;;;3.28;2.97;;;21.30;64.20;;;;;;5002155;28;20468;-65
2023/09/17 10:45:08;;;;;;;2.80;2.50;;;21.30;63.90;;;;;;5020381;28;20029;-66
2023/09/17 10:47:37;;;;;;;3.90;3.10;;;21.30;63.10;;;;;;5022025;28;20053;-66
2023/09/17 10:50:03;;;;;;;2.63;2.42;;;21.40;62.60;;;;;;5019107;28;20132;-66
2023/09/17 10:52:32;;;;;;;2.85;2.40;;;21.40;62.10;;;;;;5019036;28;20425;-66
2023/09/17 10:54:59;;;;;;;2.92;2.58;;;21.40;62.00;;;;;;5023648;28;20055;-65
2023/09/17 10:57:37;;;;;;;3.47;2.50;;;21.40;61.50;;;;;;5024114;28;20519;-66
2023/09/17 11:00:07;;;;;;;2.78;2.58;;;21.40;61.70;;;;;;5022159;28;20038;-61
2023/09/17 11:02:36;;;;;;;2.78;2.28;;;21.40;62.10;;;;;;5020580;28;20432;-65
2023/09/17 11:05:04;;;;;;;2.90;2.60;;;21.40;62.20;;;;;;5023363;28;20040;-65
2023/09/17 11:07:31;;;;;;;3.88;2.58;;;21.40;62.40;;;;;;5026109;28;20626;-66
2023/09/17 11:09:58;;;;;;;2.22;2.03;;;21.40;62.20;;;;;;5023125;28;20033;-65
2023/09/17 11:12:24;;;;;;;3.90;2.55;;;21.40;61.70;;;;;;5027111;28;20029;-66
2023/09/17 11:14:51;;;;;;;2.70;2.50;;;21.40;61.40;;;;;;5026620;28;20036;-62
2023/09/17 11:17:20;;;;;;;2.50;2.30;;;21.50;61.20;;;;;;5026648;28;20056;-65
2023/09/17 11:19:45;;;;;;;2.70;2.45;;;21.50;61.30;;;;;;5022598;28;20470;-65
2023/09/17 11:22:12;;;;;;;3.45;2.80;;;21.50;61.40;;;;;;5026233;28;20227;-60
2023/09/17 11:24:38;;;;;;;2.53;2.33;;;21.50;61.70;;;;;;5022238;28;20037;-65
2023/09/17 11:27:08;;;;;;;2.72;2.53;;;21.60;61.60;;;;;;5020036;28;20033;-66
2023/09/17 11:29:44;;;;;;;3.03;2.72;;;21.60;61.50;;;;;;5022222;28;20033;-65
2023/09/17 11:32:10;;;;;;;;;;;21.60;61.40;;;;;;5020004;28;21413;-65
2023/09/17 11:34:37;;;;;;;3.60;2.67;;;21.60;61.20;;;;;;5020669;28;19936;-66
2023/09/17 11:37:05;;;;;;;4.07;3.13;;;21.60;61.40;;;;;;5017240;28;20191;-65
2023/09/17 11:39:33;;;;;;;4.28;2.85;;;21.60;61.60;;;;;;5028285;28;20554;-62
2023/09/17 11:42:05;;;;;;;3.30;3.00;;;21.70;61.40;;;;;;5024444;28;20029;-64
2023/09/17 11:44:33;;;;;;;7.28;3.83;;;21.70;61.90;;;;;;5020181;28;20043;-66
2023/09/17 11:47:00;;;;;;;3.15;2.90;;;21.70;61.90;;;;;;5013524;28;20037;-64
2023/09/17 11:49:25;;;;;;;3.80;3.15;;;21.70;62.00;;;;;;5022936;28;20033;-66
2023/09/17 11:51:53;;;;;;;4.00;2.88;;;21.70;61.90;;;;;;5022156;28;20414;-60
2023/09/17 11:54:20;;;;;;;3.42;3.08;;;21.80;61.70;;;;;;5023570;28;20034;-65
2023/09/17 11:56:49;;;;;;;3.60;3.00;;;21.90;62.00;;;;;;5013050;28;20525;-64
2023/09/17 11:59:18;;;;;;;4.32;2.92;;;21.90;62.10;;;;;;5021706;28;20076;-66
2023/09/17 12:01:54;;;;;;;4.15;2.97;;;21.90;61.70;;;;;;5019635;28;20037;-66
2023/09/17 12:04:28;;;;;;;3.53;2.90;;;21.90;61.60;;;;;;5021171;28;20037;-65
2023/09/17 12:06:55;;;;;;;4.30;3.00;;;21.90;61.50;;;;;;5023476;28;20131;-66
2023/09/17 12:12:05;;;;;;;2.88;2.65;;;22.00;61.50;;;;;;5022430;28;20025;-62
2023/09/17 12:14:32;;;;;;;2.90;2.60;;;22.00;61.30;;;;;;5021036;28;20034;-66
2023/09/17 12:16:58;;;;;;;3.95;2.40;;;22.00;60.90;;;;;;5022524;28;20034;-66
2023/09/17 12:19:24;;;;;;;3.63;2.35;;;22.00;60.90;;;;;;5019385;28;20083;-67
2023/09/17 12:21:53;;;;;;;4.15;2.63;;;22.10;60.90;;;;;;5020098;28;20072;-66
2023/09/17 12:24:25;;;;;;;3.42;2.95;;;22.00;60.60;;;;;;5022893;28;20045;-63
2023/09/17 12:29:40;;;;;;;4.35;2.45;;;22.10;60.90;;;;;;5016175;28;20029;-65
2023/09/17 12:32:06;;;;;;;3.38;2.72;;;22.10;60.50;;;;;;5020265;28;20120;-65
2023/09/17 12:34:36;;;;;;;4.07;2.53;;;22.10;60.00;;;;;;5005613;28;20112;-66
2023/09/17 12:37:02;;;;;;;2.88;2.38;;;22.10;60.30;;;;;;5025833;28;20638;-66
2023/09/17 12:39:28;;;;;;;2.60;2.40;;;22.10;60.50;;;;;;5022183;28;20041;-65
2023/09/17 12:41:54;;;;;;;3.17;2.47;;;22.10;60.10;;;;;;5023426;28;20034;-65
2023/09/17 12:44:19;;;;;;;2.97;2.63;;;22.10;59.80;;;;;;5019120;28;20034;-64
2023/09/17 12:46:45;;;;;;;4.38;2.50;;;22.10;59.90;;;;;;5025905;28;20033;-64
2023/09/17 12:49:10;;;;;;;2.50;2.30;;;22.20;59.80;;;;;;5023423;28;20427;-63
2023/09/17 12:51:37;;;;;;;3.17;2.75;;;22.10;59.40;;;;;;5024797;28;20045;-61